sensor_id;sensor_type;location;lat;lon;timestamp;P1;durP1;ratioP1;P2;durP2;ratioP2
74177;SDS011;62540;48.456;-4.456;2022-12-29T00:01:24;3.00;;;2.00;;
74177;SDS011;62540;48.456;-4.456;2022-12-29T00:03:50;2.25;;;1.75;;
74177;SDS011;62540;48.456;-4.456;2022-12-29T00:06:15;2.00;;;1.00;;
74177;SDS011;62540;48.456;-4.456;2022-12-29T00:08:41;2.50;;;2.50;;
74177;SDS011;62540;48.456;-4.456;2022-12-29T00:11:07;1.75;;;1.00;;
74177;SDS011;62540;48.456;-4.456;2022-12-29T00:13:40;2.75;;;2.00;;
74177;SDS011;62540;48.456;-4.456;2022-12-29T00:16:24;5.00;;;3.00;;
74177;SDS011;62540;48.456;-4.456;2022-12-29T00:18:50;3.50;;;1.00;;
74177;SDS011;62540;48.456;-4.456;2022-12-29T00:21:16;3.75;;;2.00;;
74177;SDS011;62540;48.456;-4.456;2022-12-29T00:24:01;3.50;;;2.00;;
74177;SDS011;62540;48.456;-4.456;2022-12-29T00:26:47;2.50;;;1.25;;
74177;SDS011;62540;48.456;-4.456;2022-12-29T00:29:40;3.00;;;2.00;;
74177;SDS011;62540;48.456;-4.456;2022-12-29T00:32:24;5.25;;;2.50;;
74177;SDS011;62540;48.456;-4.456;2022-12-29T00:35:09;4.50;;;1.00;;
74177;SDS011;62540;48.456;-4.456;2022-12-29T00:37:40;5.00;;;3.00;;
74177;SDS011;62540;48.456;-4.456;2022-12-29T00:40:27;3.50;;;2.00;;
74177;SDS011;62540;48.456;-4.456;2022-12-29T00:43:11;6.00;;;2.75;;
74177;SDS011;62540;48.456;-4.456;2022-12-29T00:45:55;0.00;;;0.00;;
74177;SDS011;62540;48.456;-4.456;2022-12-29T00:48:21;5.75;;;2.50;;
74177;SDS011;62540;48.456;-4.456;2022-12-29T00:51:06;3.50;;;0.50;;
74177;SDS011;62540;48.456;-4.456;2022-12-29T00:53:32;3.75;;;2.00;;
74177;SDS011;62540;48.456;-4.456;2022-12-29T00:55:58;5.00;;;2.75;;
74177;SDS011;62540;48.456;-4.456;2022-12-29T00:58:26;3.50;;;1.00;;
74177;SDS011;62540;48.456;-4.456;2022-12-29T01:00:52;8.75;;;3.00;;
74177;SDS011;62540;48.456;-4.456;2022-12-29T01:03:17;2.75;;;1.75;;
74177;SDS011;62540;48.456;-4.456;2022-12-29T01:05:43;4.25;;;2.00;;
74177;SDS011;62540;48.456;-4.456;2022-12-29T01:08:09;5.75;;;1.25;;
74177;SDS011;62540;48.456;-4.456;2022-12-29T01:10:34;4.00;;;3.00;;
74177;SDS011;62540;48.456;-4.456;2022-12-29T01:12:59;6.00;;;3.00;;
74177;SDS011;62540;48.456;-4.456;2022-12-29T01:15:25;3.00;;;2.00;;
74177;SDS011;62540;48.456;-4.456;2022-12-29T01:17:50;2.75;;;0.75;;
74177;SDS011;62540;48.456;-4.456;2022-12-29T01:20:16;2.00;;;1.00;;
74177;SDS011;62540;48.456;-4.456;2022-12-29T01:22:41;1.00;;;0.00;;
74177;SDS011;62540;48.456;-4.456;2022-12-29T01:25:08;0.00;;;0.00;;
74177;SDS011;62540;48.456;-4.456;2022-12-29T01:27:34;0.00;;;0.00;;
74177;SDS011;62540;48.456;-4.456;2022-12-29T01:29:59;1.00;;;0.00;;
74177;SDS011;62540;48.456;-4.456;2022-12-29T01:32:24;3.25;;;0.00;;
74177;SDS011;62540;48.456;-4.456;2022-12-29T01:34:50;3.25;;;0.25;;
74177;SDS011;62540;48.456;-4.456;2022-12-29T01:37:15;1.00;;;1.00;;
74177;SDS011;62540;48.456;-4.456;2022-12-29T01:39:41;1.00;;;1.00;;
74177;SDS011;62540;48.456;-4.456;2022-12-29T01:42:11;2.00;;;1.00;;
74177;SDS011;62540;48.456;-4.456;2022-12-29T01:47:13;2.00;;;1.00;;
74177;SDS011;62540;48.456;-4.456;2022-12-29T01:49:43;6.00;;;1.50;;
74177;SDS011;62540;48.456;-4.456;2022-12-29T01:52:08;1.00;;;1.00;;
74177;SDS011;62540;48.456;-4.456;2022-12-29T01:54:35;0.50;;;0.50;;
74177;SDS011;62540;48.456;-4.456;2022-12-29T01:57:04;0.00;;;0.00;;
74177;SDS011;62540;48.456;-4.456;2022-12-29T01:59:36;1.00;;;1.00;;
74177;SDS011;62540;48.456;-4.456;2022-12-29T02:02:06;2.00;;;1.00;;
74177;SDS011;62540;48.456;-4.456;2022-12-29T02:04:32;4.25;;;2.00;;
74177;SDS011;62540;48.456;-4.456;2022-12-29T02:07:01;2.75;;;1.00;;
74177;SDS011;62540;48.456;-4.456;2022-12-29T02:09:30;2.75;;;1.00;;
74177;SDS011;62540;48.456;-4.456;2022-12-29T02:11:56;2.00;;;1.00;;
74177;SDS011;62540;48.456;-4.456;2022-12-29T02:14:22;5.00;;;1.00;;
74177;SDS011;62540;48.456;-4.456;2022-12-29T02:22:49;1.00;;;1.00;;
74177;SDS011;62540;48.456;-4.456;2022-12-29T02:26:04;2.50;;;1.50;;
74177;SDS011;62540;48.456;-4.456;2022-12-29T02:37:16;1.75;;;1.00;;
74177;SDS011;62540;48.456;-4.456;2022-12-29T02:39:46;3.50;;;1.00;;
74177;SDS011;62540;48.456;-4.456;2022-12-29T02:52:43;1.00;;;0.00;;
74177;SDS011;62540;48.456;-4.456;2022-12-29T02:55:31;0.25;;;0.00;;
74177;SDS011;62540;48.456;-4.456;2022-12-29T02:58:14;1.00;;;0.50;;
74177;SDS011;62540;48.456;-4.456;2022-12-29T03:06:18;2.50;;;1.00;;
74177;SDS011;62540;48.456;-4.456;2022-12-29T03:15:45;1.75;;;1.75;;
74177;SDS011;62540;48.456;-4.456;2022-12-29T03:21:41;2.50;;;1.50;;
74177;SDS011;62540;48.456;-4.456;2022-12-29T03:24:29;2.25;;;1.50;;
74177;SDS011;62540;48.456;-4.456;2022-12-29T03:26:58;1.50;;;1.50;;
74177;SDS011;62540;48.456;-4.456;2022-12-29T03:29:26;2.00;;;1.00;;
74177;SDS011;62540;48.456;-4.456;2022-12-29T03:31:54;0.00;;;0.00;;
74177;SDS011;62540;48.456;-4.456;2022-12-29T03:34:21;2.00;;;0.00;;
74177;SDS011;62540;48.456;-4.456;2022-12-29T03:37:02;0.25;;;0.00;;
74177;SDS011;62540;48.456;-4.456;2022-12-29T03:39:33;0.50;;;0.00;;
74177;SDS011;62540;48.456;-4.456;2022-12-29T03:41:59;1.00;;;0.00;;
74177;SDS011;62540;48.456;-4.456;2022-12-29T03:44:35;0.00;;;0.00;;
74177;SDS011;62540;48.456;-4.456;2022-12-29T03:47:03;0.00;;;0.00;;
74177;SDS011;62540;48.456;-4.456;2022-12-29T03:49:28;1.00;;;0.00;;
74177;SDS011;62540;48.456;-4.456;2022-12-29T03:51:54;4.00;;;1.00;;
74177;SDS011;62540;48.456;-4.456;2022-12-29T03:54:20;2.00;;;1.00;;
74177;SDS011;62540;48.456;-4.456;2022-12-29T03:56:46;0.25;;;0.25;;
74177;SDS011;62540;48.456;-4.456;2022-12-29T03:59:11;1.00;;;0.00;;
74177;SDS011;62540;48.456;-4.456;2022-12-29T04:01:37;1.50;;;1.00;;
74177;SDS011;62540;48.456;-4.456;2022-12-29T04:04:03;1.00;;;1.00;;
74177;SDS011;62540;48.456;-4.456;2022-12-29T04:06:28;1.75;;;1.00;;
74177;SDS011;62540;48.456;-4.456;2022-12-29T04:08:54;3.00;;;0.00;;
74177;SDS011;62540;48.456;-4.456;2022-12-29T04:11:20;3.00;;;1.25;;
74177;SDS011;62540;48.456;-4.456;2022-12-29T04:13:46;2.00;;;1.50;;
74177;SDS011;62540;48.456;-4.456;2022-12-29T04:16:11;0.75;;;0.25;;
74177;SDS011;62540;48.456;-4.456;2022-12-29T04:18:37;0.50;;;0.00;;
74177;SDS011;62540;48.456;-4.456;2022-12-29T04:21:02;3.25;;;1.00;;
74177;SDS011;62540;48.456;-4.456;2022-12-29T04:23:33;2.00;;;1.00;;
74177;SDS011;62540;48.456;-4.456;2022-12-29T04:26:01;1.00;;;1.00;;
74177;SDS011;62540;48.456;-4.456;2022-12-29T04:28:27;1.75;;;0.75;;
74177;SDS011;62540;48.456;-4.456;2022-12-29T04:30:53;1.50;;;0.75;;
74177;SDS011;62540;48.456;-4.456;2022-12-29T04:33:19;1.25;;;0.25;;
74177;SDS011;62540;48.456;-4.456;2022-12-29T04:35:44;2.00;;;1.00;;
74177;SDS011;62540;48.456;-4.456;2022-12-29T04:38:10;2.50;;;1.00;;
74177;SDS011;62540;48.456;-4.456;2022-12-29T04:40:37;1.75;;;0.75;;
74177;SDS011;62540;48.456;-4.456;2022-12-29T04:43:03;2.25;;;1.00;;
74177;SDS011;62540;48.456;-4.456;2022-12-29T04:45:29;1.25;;;1.00;;
74177;SDS011;62540;48.456;-4.456;2022-12-29T04:47:54;2.25;;;1.25;;
74177;SDS011;62540;48.456;-4.456;2022-12-29T04:50:19;4.00;;;2.00;;
74177;SDS011;62540;48.456;-4.456;2022-12-29T04:52:45;2.25;;;2.00;;
74177;SDS011;62540;48.456;-4.456;2022-12-29T04:55:10;2.75;;;1.50;;
74177;SDS011;62540;48.456;-4.456;2022-12-29T04:57:36;3.75;;;1.00;;
74177;SDS011;62540;48.456;-4.456;2022-12-29T05:00:02;1.00;;;1.00;;
74177;SDS011;62540;48.456;-4.456;2022-12-29T05:02:28;4.25;;;2.25;;
74177;SDS011;62540;48.456;-4.456;2022-12-29T05:04:53;5.00;;;1.00;;
74177;SDS011;62540;48.456;-4.456;2022-12-29T05:07:19;1.50;;;0.00;;
74177;SDS011;62540;48.456;-4.456;2022-12-29T05:09:44;5.75;;;1.50;;
74177;SDS011;62540;48.456;-4.456;2022-12-29T05:12:11;3.25;;;2.00;;
74177;SDS011;62540;48.456;-4.456;2022-12-29T05:14:36;2.00;;;1.25;;
74177;SDS011;62540;48.456;-4.456;2022-12-29T05:17:01;0.50;;;0.00;;
74177;SDS011;62540;48.456;-4.456;2022-12-29T05:19:27;1.25;;;1.00;;
74177;SDS011;62540;48.456;-4.456;2022-12-29T05:21:52;2.00;;;1.00;;
74177;SDS011;62540;48.456;-4.456;2022-12-29T05:24:19;3.00;;;1.75;;
74177;SDS011;62540;48.456;-4.456;2022-12-29T05:26:44;2.00;;;1.00;;
74177;SDS011;62540;48.456;-4.456;2022-12-29T05:29:10;3.00;;;1.00;;
74177;SDS011;62540;48.456;-4.456;2022-12-29T05:31:35;4.50;;;2.00;;
74177;SDS011;62540;48.456;-4.456;2022-12-29T05:34:01;2.50;;;1.50;;
74177;SDS011;62540;48.456;-4.456;2022-12-29T05:36:27;5.00;;;2.00;;
74177;SDS011;62540;48.456;-4.456;2022-12-29T05:38:52;5.00;;;3.00;;
74177;SDS011;62540;48.456;-4.456;2022-12-29T05:41:18;3.00;;;2.00;;
74177;SDS011;62540;48.456;-4.456;2022-12-29T05:43:43;3.00;;;2.00;;
74177;SDS011;62540;48.456;-4.456;2022-12-29T05:46:09;6.75;;;2.25;;
74177;SDS011;62540;48.456;-4.456;2022-12-29T05:48:34;3.00;;;2.00;;
74177;SDS011;62540;48.456;-4.456;2022-12-29T05:51:00;4.00;;;2.00;;
74177;SDS011;62540;48.456;-4.456;2022-12-29T05:53:25;5.00;;;3.00;;
74177;SDS011;62540;48.456;-4.456;2022-12-29T05:55:51;3.50;;;2.00;;
74177;SDS011;62540;48.456;-4.456;2022-12-29T05:58:16;1.50;;;0.00;;
74177;SDS011;62540;48.456;-4.456;2022-12-29T06:00:42;4.00;;;2.75;;
74177;SDS011;62540;48.456;-4.456;2022-12-29T06:03:08;4.00;;;2.00;;
74177;SDS011;62540;48.456;-4.456;2022-12-29T06:05:33;3.50;;;1.00;;
74177;SDS011;62540;48.456;-4.456;2022-12-29T06:07:59;3.75;;;2.75;;
74177;SDS011;62540;48.456;-4.456;2022-12-29T06:10:24;7.75;;;3.00;;
74177;SDS011;62540;48.456;-4.456;2022-12-29T06:12:49;2.50;;;2.25;;
74177;SDS011;62540;48.456;-4.456;2022-12-29T06:15:15;3.00;;;1.75;;
74177;SDS011;62540;48.456;-4.456;2022-12-29T06:17:41;7.50;;;3.00;;
74177;SDS011;62540;48.456;-4.456;2022-12-29T06:20:06;3.75;;;1.75;;
74177;SDS011;62540;48.456;-4.456;2022-12-29T06:22:32;4.50;;;1.00;;
74177;SDS011;62540;48.456;-4.456;2022-12-29T06:24:58;2.00;;;1.00;;
74177;SDS011;62540;48.456;-4.456;2022-12-29T06:27:24;3.00;;;1.00;;
74177;SDS011;62540;48.456;-4.456;2022-12-29T06:29:49;5.00;;;3.00;;
74177;SDS011;62540;48.456;-4.456;2022-12-29T06:32:14;4.00;;;2.00;;
74177;SDS011;62540;48.456;-4.456;2022-12-29T06:34:40;4.00;;;2.25;;
74177;SDS011;62540;48.456;-4.456;2022-12-29T06:37:06;3.50;;;1.75;;
74177;SDS011;62540;48.456;-4.456;2022-12-29T06:39:32;5.75;;;2.00;;
74177;SDS011;62540;48.456;-4.456;2022-12-29T06:41:57;2.50;;;0.75;;
74177;SDS011;62540;48.456;-4.456;2022-12-29T06:44:22;2.00;;;2.00;;
74177;SDS011;62540;48.456;-4.456;2022-12-29T06:46:48;2.25;;;0.50;;
74177;SDS011;62540;48.456;-4.456;2022-12-29T06:49:14;2.50;;;1.50;;
74177;SDS011;62540;48.456;-4.456;2022-12-29T06:51:39;1.25;;;0.25;;
74177;SDS011;62540;48.456;-4.456;2022-12-29T06:54:05;2.00;;;1.00;;
74177;SDS011;62540;48.456;-4.456;2022-12-29T06:56:30;1.00;;;0.00;;
74177;SDS011;62540;48.456;-4.456;2022-12-29T06:58:56;1.00;;;0.00;;
74177;SDS011;62540;48.456;-4.456;2022-12-29T07:01:21;0.00;;;0.00;;
74177;SDS011;62540;48.456;-4.456;2022-12-29T07:03:47;1.75;;;0.00;;
74177;SDS011;62540;48.456;-4.456;2022-12-29T07:06:12;1.00;;;0.75;;
74177;SDS011;62540;48.456;-4.456;2022-12-29T07:08:38;1.00;;;0.00;;
74177;SDS011;62540;48.456;-4.456;2022-12-29T07:11:04;1.00;;;0.00;;
74177;SDS011;62540;48.456;-4.456;2022-12-29T07:13:30;0.75;;;0.00;;
74177;SDS011;62540;48.456;-4.456;2022-12-29T07:15:55;0.00;;;0.00;;
74177;SDS011;62540;48.456;-4.456;2022-12-29T07:18:21;0.75;;;0.00;;
74177;SDS011;62540;48.456;-4.456;2022-12-29T07:20:46;0.50;;;0.00;;
74177;SDS011;62540;48.456;-4.456;2022-12-29T07:23:12;1.00;;;1.00;;
74177;SDS011;62540;48.456;-4.456;2022-12-29T07:25:37;1.00;;;1.00;;
74177;SDS011;62540;48.456;-4.456;2022-12-29T07:28:05;0.50;;;0.00;;
74177;SDS011;62540;48.456;-4.456;2022-12-29T07:30:30;2.75;;;0.75;;
74177;SDS011;62540;48.456;-4.456;2022-12-29T07:32:56;3.00;;;1.50;;
74177;SDS011;62540;48.456;-4.456;2022-12-29T07:35:22;4.25;;;2.00;;
74177;SDS011;62540;48.456;-4.456;2022-12-29T07:37:47;1.25;;;1.00;;
74177;SDS011;62540;48.456;-4.456;2022-12-29T07:40:12;2.00;;;1.75;;
74177;SDS011;62540;48.456;-4.456;2022-12-29T07:42:38;1.25;;;1.25;;
74177;SDS011;62540;48.456;-4.456;2022-12-29T07:45:03;1.25;;;1.00;;
74177;SDS011;62540;48.456;-4.456;2022-12-29T07:47:29;1.00;;;1.00;;
74177;SDS011;62540;48.456;-4.456;2022-12-29T07:49:55;1.75;;;1.00;;
74177;SDS011;62540;48.456;-4.456;2022-12-29T07:52:20;2.00;;;1.00;;
74177;SDS011;62540;48.456;-4.456;2022-12-29T07:54:45;2.75;;;0.25;;
74177;SDS011;62540;48.456;-4.456;2022-12-29T07:57:11;2.00;;;0.00;;
74177;SDS011;62540;48.456;-4.456;2022-12-29T07:59:36;2.75;;;0.00;;
74177;SDS011;62540;48.456;-4.456;2022-12-29T08:02:02;2.75;;;1.25;;
74177;SDS011;62540;48.456;-4.456;2022-12-29T08:04:27;2.25;;;1.00;;
74177;SDS011;62540;48.456;-4.456;2022-12-29T08:06:53;1.00;;;0.75;;
74177;SDS011;62540;48.456;-4.456;2022-12-29T08:09:18;2.00;;;1.00;;
74177;SDS011;62540;48.456;-4.456;2022-12-29T08:11:44;2.00;;;0.50;;
74177;SDS011;62540;48.456;-4.456;2022-12-29T08:14:09;1.00;;;1.00;;
74177;SDS011;62540;48.456;-4.456;2022-12-29T08:16:35;2.00;;;0.00;;
74177;SDS011;62540;48.456;-4.456;2022-12-29T08:19:00;2.00;;;0.75;;
74177;SDS011;62540;48.456;-4.456;2022-12-29T08:21:26;1.00;;;1.00;;
74177;SDS011;62540;48.456;-4.456;2022-12-29T08:23:52;1.25;;;0.75;;
74177;SDS011;62540;48.456;-4.456;2022-12-29T08:26:18;2.00;;;1.00;;
74177;SDS011;62540;48.456;-4.456;2022-12-29T08:28:43;1.25;;;0.75;;
74177;SDS011;62540;48.456;-4.456;2022-12-29T08:31:08;3.00;;;0.50;;
74177;SDS011;62540;48.456;-4.456;2022-12-29T08:33:34;3.00;;;1.00;;
74177;SDS011;62540;48.456;-4.456;2022-12-29T08:36:03;3.50;;;0.75;;
74177;SDS011;62540;48.456;-4.456;2022-12-29T08:38:31;1.75;;;1.00;;
74177;SDS011;62540;48.456;-4.456;2022-12-29T08:40:57;0.25;;;0.00;;
74177;SDS011;62540;48.456;-4.456;2022-12-29T08:43:23;2.00;;;1.00;;
74177;SDS011;62540;48.456;-4.456;2022-12-29T08:45:49;4.00;;;1.00;;
74177;SDS011;62540;48.456;-4.456;2022-12-29T08:48:15;1.00;;;1.00;;
74177;SDS011;62540;48.456;-4.456;2022-12-29T08:50:44;3.00;;;1.00;;
74177;SDS011;62540;48.456;-4.456;2022-12-29T08:53:10;5.00;;;3.25;;
74177;SDS011;62540;48.456;-4.456;2022-12-29T08:55:35;4.25;;;1.25;;
74177;SDS011;62540;48.456;-4.456;2022-12-29T08:58:01;2.25;;;1.75;;
74177;SDS011;62540;48.456;-4.456;2022-12-29T09:00:26;1.00;;;1.00;;
74177;SDS011;62540;48.456;-4.456;2022-12-29T09:02:52;1.50;;;1.00;;
74177;SDS011;62540;48.456;-4.456;2022-12-29T09:05:17;2.00;;;1.50;;
74177;SDS011;62540;48.456;-4.456;2022-12-29T09:07:42;3.00;;;1.00;;
74177;SDS011;62540;48.456;-4.456;2022-12-29T09:10:08;4.50;;;2.00;;
74177;SDS011;62540;48.456;-4.456;2022-12-29T09:12:34;1.00;;;0.00;;
74177;SDS011;62540;48.456;-4.456;2022-12-29T09:14:59;3.75;;;2.00;;
74177;SDS011;62540;48.456;-4.456;2022-12-29T09:17:25;3.00;;;2.00;;
74177;SDS011;62540;48.456;-4.456;2022-12-29T09:20:09;3.00;;;2.00;;
74177;SDS011;62540;48.456;-4.456;2022-12-29T09:22:36;2.00;;;1.75;;
74177;SDS011;62540;48.456;-4.456;2022-12-29T09:25:01;3.75;;;2.25;;
74177;SDS011;62540;48.456;-4.456;2022-12-29T09:27:27;2.75;;;1.75;;
74177;SDS011;62540;48.456;-4.456;2022-12-29T09:29:52;8.00;;;4.00;;
74177;SDS011;62540;48.456;-4.456;2022-12-29T09:32:18;5.00;;;4.00;;
74177;SDS011;62540;48.456;-4.456;2022-12-29T09:34:43;6.00;;;2.00;;
74177;SDS011;62540;48.456;-4.456;2022-12-29T09:37:09;2.00;;;1.25;;
74177;SDS011;62540;48.456;-4.456;2022-12-29T09:39:34;2.00;;;0.00;;
74177;SDS011;62540;48.456;-4.456;2022-12-29T09:42:01;1.00;;;1.00;;
74177;SDS011;62540;48.456;-4.456;2022-12-29T09:47:28;3.00;;;2.00;;
74177;SDS011;62540;48.456;-4.456;2022-12-29T09:52:39;4.00;;;1.00;;
74177;SDS011;62540;48.456;-4.456;2022-12-29T09:55:24;3.25;;;1.25;;
74177;SDS011;62540;48.456;-4.456;2022-12-29T09:57:57;1.50;;;0.75;;
74177;SDS011;62540;48.456;-4.456;2022-12-29T10:00:48;0.00;;;0.00;;
74177;SDS011;62540;48.456;-4.456;2022-12-29T10:03:20;2.50;;;1.00;;
74177;SDS011;62540;48.456;-4.456;2022-12-29T10:08:42;1.00;;;0.00;;
74177;SDS011;62540;48.456;-4.456;2022-12-29T10:11:20;0.25;;;0.00;;
74177;SDS011;62540;48.456;-4.456;2022-12-29T10:25:08;0.00;;;0.00;;
74177;SDS011;62540;48.456;-4.456;2022-12-29T10:27:45;0.00;;;0.00;;
74177;SDS011;62540;48.456;-4.456;2022-12-29T10:30:13;1.00;;;0.00;;
74177;SDS011;62540;48.456;-4.456;2022-12-29T10:32:40;0.75;;;0.75;;
74177;SDS011;62540;48.456;-4.456;2022-12-29T10:35:14;1.25;;;1.00;;
74177;SDS011;62540;48.456;-4.456;2022-12-29T10:41:03;3.50;;;2.00;;
74177;SDS011;62540;48.456;-4.456;2022-12-29T10:46:14;7.25;;;3.75;;
74177;SDS011;62540;48.456;-4.456;2022-12-29T10:48:54;2.00;;;1.75;;
74177;SDS011;62540;48.456;-4.456;2022-12-29T10:51:21;2.00;;;1.00;;
74177;SDS011;62540;48.456;-4.456;2022-12-29T10:56:38;4.25;;;3.25;;
74177;SDS011;62540;48.456;-4.456;2022-12-29T10:59:22;1.75;;;1.00;;
74177;SDS011;62540;48.456;-4.456;2022-12-29T11:07:00;0.00;;;0.00;;
74177;SDS011;62540;48.456;-4.456;2022-12-29T11:09:27;4.50;;;2.00;;
74177;SDS011;62540;48.456;-4.456;2022-12-29T11:11:56;2.50;;;1.00;;
74177;SDS011;62540;48.456;-4.456;2022-12-29T11:14:27;3.00;;;3.00;;
74177;SDS011;62540;48.456;-4.456;2022-12-29T11:16:58;2.50;;;2.00;;
74177;SDS011;62540;48.456;-4.456;2022-12-29T11:19:26;6.00;;;3.00;;
74177;SDS011;62540;48.456;-4.456;2022-12-29T11:21:53;2.75;;;1.50;;
74177;SDS011;62540;48.456;-4.456;2022-12-29T11:24:26;3.00;;;2.00;;
74177;SDS011;62540;48.456;-4.456;2022-12-29T11:27:15;3.25;;;2.00;;
74177;SDS011;62540;48.456;-4.456;2022-12-29T11:29:42;1.50;;;1.00;;
74177;SDS011;62540;48.456;-4.456;2022-12-29T11:32:18;0.50;;;0.50;;
74177;SDS011;62540;48.456;-4.456;2022-12-29T11:34:47;1.00;;;1.00;;
74177;SDS011;62540;48.456;-4.456;2022-12-29T11:43:11;4.00;;;0.75;;
74177;SDS011;62540;48.456;-4.456;2022-12-29T11:45:18;1.00;;;1.00;;
74177;SDS011;62540;48.456;-4.456;2022-12-29T11:47:49;3.00;;;1.50;;
74177;SDS011;62540;48.456;-4.456;2022-12-29T11:50:27;1.75;;;1.75;;
74177;SDS011;62540;48.456;-4.456;2022-12-29T11:53:00;3.00;;;2.50;;
74177;SDS011;62540;48.456;-4.456;2022-12-29T11:55:29;2.00;;;2.00;;
74177;SDS011;62540;48.456;-4.456;2022-12-29T11:57:57;2.00;;;1.00;;
74177;SDS011;62540;48.456;-4.456;2022-12-29T12:00:26;1.00;;;0.00;;
74177;SDS011;62540;48.456;-4.456;2022-12-29T12:02:58;2.25;;;0.00;;
74177;SDS011;62540;48.456;-4.456;2022-12-29T12:10:54;1.50;;;0.00;;
74177;SDS011;62540;48.456;-4.456;2022-12-29T12:13:46;1.00;;;0.00;;
74177;SDS011;62540;48.456;-4.456;2022-12-29T12:16:24;1.00;;;0.00;;
74177;SDS011;62540;48.456;-4.456;2022-12-29T12:19:03;0.50;;;0.50;;
74177;SDS011;62540;48.456;-4.456;2022-12-29T12:21:40;2.00;;;0.00;;
74177;SDS011;62540;48.456;-4.456;2022-12-29T12:29:41;0.00;;;0.00;;
74177;SDS011;62540;48.456;-4.456;2022-12-29T12:34:44;0.00;;;0.00;;
74177;SDS011;62540;48.456;-4.456;2022-12-29T12:37:15;1.25;;;1.00;;
74177;SDS011;62540;48.456;-4.456;2022-12-29T12:40:22;1.50;;;1.50;;
74177;SDS011;62540;48.456;-4.456;2022-12-29T12:46:07;0.00;;;0.00;;
74177;SDS011;62540;48.456;-4.456;2022-12-29T12:48:59;1.00;;;0.00;;
74177;SDS011;62540;48.456;-4.456;2022-12-29T13:00:21;1.00;;;0.00;;
74177;SDS011;62540;48.456;-4.456;2022-12-29T13:05:47;1.00;;;0.75;;
74177;SDS011;62540;48.456;-4.456;2022-12-29T13:11:54;0.00;;;0.00;;
74177;SDS011;62540;48.456;-4.456;2022-12-29T13:18:12;2.00;;;1.00;;
74177;SDS011;62540;48.456;-4.456;2022-12-29T13:23:16;0.00;;;0.00;;
74177;SDS011;62540;48.456;-4.456;2022-12-29T13:25:51;1.00;;;0.00;;
74177;SDS011;62540;48.456;-4.456;2022-12-29T13:28:48;1.50;;;1.00;;
74177;SDS011;62540;48.456;-4.456;2022-12-29T13:34:05;0.25;;;0.25;;
74177;SDS011;62540;48.456;-4.456;2022-12-29T13:36:37;2.00;;;1.00;;
74177;SDS011;62540;48.456;-4.456;2022-12-29T13:42:12;1.00;;;1.00;;
74177;SDS011;62540;48.456;-4.456;2022-12-29T13:44:40;1.00;;;0.00;;
74177;SDS011;62540;48.456;-4.456;2022-12-29T13:47:16;5.75;;;4.00;;
74177;SDS011;62540;48.456;-4.456;2022-12-29T13:49:45;2.75;;;1.00;;
74177;SDS011;62540;48.456;-4.456;2022-12-29T13:52:24;7.25;;;3.75;;
74177;SDS011;62540;48.456;-4.456;2022-12-29T14:00:29;1.00;;;1.00;;
74177;SDS011;62540;48.456;-4.456;2022-12-29T14:05:36;0.25;;;0.00;;
74177;SDS011;62540;48.456;-4.456;2022-12-29T14:08:03;2.00;;;0.00;;
74177;SDS011;62540;48.456;-4.456;2022-12-29T14:13:20;2.50;;;1.00;;
74177;SDS011;62540;48.456;-4.456;2022-12-29T14:15:51;4.00;;;2.75;;
74177;SDS011;62540;48.456;-4.456;2022-12-29T14:18:20;6.50;;;4.00;;
74177;SDS011;62540;48.456;-4.456;2022-12-29T14:20:52;3.50;;;2.00;;
74177;SDS011;62540;48.456;-4.456;2022-12-29T14:23:53;1.00;;;1.00;;
74177;SDS011;62540;48.456;-4.456;2022-12-29T14:28:44;1.00;;;0.00;;
74177;SDS011;62540;48.456;-4.456;2022-12-29T14:36:35;3.75;;;2.50;;
74177;SDS011;62540;48.456;-4.456;2022-12-29T14:39:02;4.50;;;3.25;;
74177;SDS011;62540;48.456;-4.456;2022-12-29T14:41:32;3.75;;;3.00;;
74177;SDS011;62540;48.456;-4.456;2022-12-29T14:47:34;6.00;;;3.75;;
74177;SDS011;62540;48.456;-4.456;2022-12-29T14:49:39;2.25;;;1.00;;
74177;SDS011;62540;48.456;-4.456;2022-12-29T14:52:15;3.75;;;1.75;;
74177;SDS011;62540;48.456;-4.456;2022-12-29T14:54:47;5.50;;;4.00;;
74177;SDS011;62540;48.456;-4.456;2022-12-29T14:57:28;4.50;;;3.00;;
74177;SDS011;62540;48.456;-4.456;2022-12-29T15:02:50;0.00;;;0.00;;
74177;SDS011;62540;48.456;-4.456;2022-12-29T15:07:58;2.75;;;1.50;;
74177;SDS011;62540;48.456;-4.456;2022-12-29T15:10:25;3.00;;;1.50;;
74177;SDS011;62540;48.456;-4.456;2022-12-29T15:13:00;3.50;;;1.00;;
74177;SDS011;62540;48.456;-4.456;2022-12-29T15:15:31;5.00;;;1.00;;
74177;SDS011;62540;48.456;-4.456;2022-12-29T15:20:54;2.25;;;1.00;;
74177;SDS011;62540;48.456;-4.456;2022-12-29T15:23:31;2.00;;;1.75;;
74177;SDS011;62540;48.456;-4.456;2022-12-29T15:26:00;0.50;;;0.25;;
74177;SDS011;62540;48.456;-4.456;2022-12-29T15:28:36;1.75;;;1.00;;
74177;SDS011;62540;48.456;-4.456;2022-12-29T15:31:14;4.75;;;1.25;;
74177;SDS011;62540;48.456;-4.456;2022-12-29T15:33:42;7.25;;;4.00;;
74177;SDS011;62540;48.456;-4.456;2022-12-29T15:36:14;3.25;;;3.00;;
74177;SDS011;62540;48.456;-4.456;2022-12-29T15:38:45;18.50;;;15.75;;
74177;SDS011;62540;48.456;-4.456;2022-12-29T15:41:29;15.00;;;9.75;;
74177;SDS011;62540;48.456;-4.456;2022-12-29T15:44:25;10.50;;;7.00;;
74177;SDS011;62540;48.456;-4.456;2022-12-29T15:46:51;16.00;;;13.50;;
74177;SDS011;62540;48.456;-4.456;2022-12-29T15:49:17;10.75;;;8.25;;
74177;SDS011;62540;48.456;-4.456;2022-12-29T15:51:43;12.50;;;10.25;;
74177;SDS011;62540;48.456;-4.456;2022-12-29T15:54:18;10.00;;;10.00;;
74177;SDS011;62540;48.456;-4.456;2022-12-29T15:56:46;12.25;;;10.00;;
74177;SDS011;62540;48.456;-4.456;2022-12-29T15:59:23;17.50;;;14.00;;
74177;SDS011;62540;48.456;-4.456;2022-12-29T16:01:51;11.50;;;8.75;;
74177;SDS011;62540;48.456;-4.456;2022-12-29T16:04:18;12.50;;;11.00;;
74177;SDS011;62540;48.456;-4.456;2022-12-29T16:06:44;16.25;;;11.00;;
74177;SDS011;62540;48.456;-4.456;2022-12-29T16:09:28;9.00;;;9.00;;
74177;SDS011;62540;48.456;-4.456;2022-12-29T16:12:05;14.50;;;12.50;;
74177;SDS011;62540;48.456;-4.456;2022-12-29T16:14:37;15.25;;;13.25;;
74177;SDS011;62540;48.456;-4.456;2022-12-29T16:17:03;19.75;;;16.25;;
74177;SDS011;62540;48.456;-4.456;2022-12-29T16:19:33;17.00;;;16.25;;
74177;SDS011;62540;48.456;-4.456;2022-12-29T16:22:01;24.75;;;18.00;;
74177;SDS011;62540;48.456;-4.456;2022-12-29T16:24:34;17.00;;;13.50;;
74177;SDS011;62540;48.456;-4.456;2022-12-29T16:27:21;17.50;;;14.00;;
74177;SDS011;62540;48.456;-4.456;2022-12-29T16:29:57;18.75;;;17.00;;
74177;SDS011;62540;48.456;-4.456;2022-12-29T16:38:07;19.75;;;17.75;;
74177;SDS011;62540;48.456;-4.456;2022-12-29T16:40:51;16.50;;;16.00;;
74177;SDS011;62540;48.456;-4.456;2022-12-29T16:43:36;15.25;;;11.50;;
74177;SDS011;62540;48.456;-4.456;2022-12-29T16:46:21;18.00;;;15.75;;
74177;SDS011;62540;48.456;-4.456;2022-12-29T16:48:52;11.50;;;10.25;;
74177;SDS011;62540;48.456;-4.456;2022-12-29T16:51:22;17.50;;;15.00;;
74177;SDS011;62540;48.456;-4.456;2022-12-29T16:54:01;13.50;;;11.75;;
74177;SDS011;62540;48.456;-4.456;2022-12-29T16:56:32;13.00;;;12.50;;
74177;SDS011;62540;48.456;-4.456;2022-12-29T16:59:04;13.00;;;10.00;;
74177;SDS011;62540;48.456;-4.456;2022-12-29T17:01:42;10.75;;;10.25;;
74177;SDS011;62540;48.456;-4.456;2022-12-29T17:04:09;16.00;;;14.00;;
74177;SDS011;62540;48.456;-4.456;2022-12-29T17:06:36;17.25;;;17.00;;
74177;SDS011;62540;48.456;-4.456;2022-12-29T17:09:02;16.50;;;15.25;;
74177;SDS011;62540;48.456;-4.456;2022-12-29T17:11:29;16.75;;;15.50;;
74177;SDS011;62540;48.456;-4.456;2022-12-29T17:14:21;10.50;;;8.50;;
74177;SDS011;62540;48.456;-4.456;2022-12-29T17:16:59;11.50;;;9.75;;
74177;SDS011;62540;48.456;-4.456;2022-12-29T17:19:31;8.75;;;7.00;;
74177;SDS011;62540;48.456;-4.456;2022-12-29T17:21:59;17.50;;;14.75;;
74177;SDS011;62540;48.456;-4.456;2022-12-29T17:24:25;18.00;;;17.25;;
74177;SDS011;62540;48.456;-4.456;2022-12-29T17:26:51;21.50;;;21.50;;
74177;SDS011;62540;48.456;-4.456;2022-12-29T17:29:40;40.75;;;34.25;;